sensor_id;sensor_type;location;lat;lon;timestamp;pressure;altitude;pressure_sealevel;temperature;humidity
4598;BME280;62772;48.646;8.906;2023-04-02T00:00:19;95484.72;;;4.84;100.00
4598;BME280;62772;48.646;8.906;2023-04-02T00:10:33;95487.75;;;5.19;100.00
4598;BME280;62772;48.646;8.906;2023-04-02T00:15:35;95492.28;;;5.19;100.00
4598;BME280;62772;48.646;8.906;2023-04-02T00:20:39;95492.06;;;5.15;100.00
4598;BME280;62772;48.646;8.906;2023-04-02T00:25:42;95503.63;;;5.33;100.00
4598;BME280;62772;48.646;8.906;2023-04-02T00:30:50;95492.81;;;5.43;100.00
4598;BME280;62772;48.646;8.906;2023-04-02T00:35:53;95510.50;;;5.34;100.00
4598;BME280;62772;48.646;8.906;2023-04-02T00:40:56;95511.38;;;5.30;100.00
4598;BME280;62772;48.646;8.906;2023-04-02T00:46:03;95505.31;;;5.29;100.00
4598;BME280;62772;48.646;8.906;2023-04-02T00:51:47;95512.94;;;5.17;100.00
4598;BME280;62772;48.646;8.906;2023-04-02T00:56:52;95508.25;;;5.14;100.00
4598;BME280;62772;48.646;8.906;2023-04-02T01:01:58;95508.22;;;5.55;100.00
4598;BME280;62772;48.646;8.906;2023-04-02T01:07:03;95515.47;;;5.63;100.00
4598;BME280;62772;48.646;8.906;2023-04-02T01:27:41;95529.13;;;5.29;100.00
4598;BME280;62772;48.646;8.906;2023-04-02T01:32:43;95534.13;;;5.03;100.00
4598;BME280;62772;48.646;8.906;2023-04-02T01:38:04;95537.72;;;4.93;100.00
4598;BME280;62772;48.646;8.906;2023-04-02T01:43:32;95543.41;;;4.86;100.00
4598;BME280;62772;48.646;8.906;2023-04-02T01:48:38;95538.44;;;5.13;100.00
4598;BME280;62772;48.646;8.906;2023-04-02T01:53:38;95541.25;;;4.75;100.00
4598;BME280;62772;48.646;8.906;2023-04-02T01:58:39;95548.53;;;4.97;100.00
4598;BME280;62772;48.646;8.906;2023-04-02T02:03:42;95541.69;;;5.09;100.00
4598;BME280;62772;48.646;8.906;2023-04-02T02:08:58;95542.66;;;5.00;100.00
4598;BME280;62772;48.646;8.906;2023-04-02T02:14:08;95545.19;;;5.05;100.00
4598;BME280;62772;48.646;8.906;2023-04-02T02:19:20;95555.53;;;4.73;100.00
4598;BME280;62772;48.646;8.906;2023-04-02T02:24:31;95555.69;;;5.10;100.00
4598;BME280;62772;48.646;8.906;2023-04-02T02:29:36;95565.53;;;4.77;100.00
4598;BME280;62772;48.646;8.906;2023-04-02T02:35:04;95563.03;;;4.85;100.00
4598;BME280;62772;48.646;8.906;2023-04-02T02:40:34;95566.69;;;5.17;100.00
4598;BME280;62772;48.646;8.906;2023-04-02T02:45:37;95558.34;;;5.24;100.00
4598;BME280;62772;48.646;8.906;2023-04-02T02:50:41;95571.94;;;4.89;100.00
4598;BME280;62772;48.646;8.906;2023-04-02T02:55:43;95575.28;;;4.95;100.00
4598;BME280;62772;48.646;8.906;2023-04-02T03:00:52;95576.06;;;4.96;100.00
4598;BME280;62772;48.646;8.906;2023-04-02T03:06:02;95579.53;;;5.24;100.00
4598;BME280;62772;48.646;8.906;2023-04-02T03:11:10;95589.63;;;5.22;100.00
4598;BME280;62772;48.646;8.906;2023-04-02T03:21:45;95597.25;;;5.09;100.00
4598;BME280;62772;48.646;8.906;2023-04-02T03:26:58;95613.19;;;5.23;100.00
4598;BME280;62772;48.646;8.906;2023-04-02T03:32:06;95604.34;;;5.42;100.00
4598;BME280;62772;48.646;8.906;2023-04-02T03:37:38;95614.06;;;5.60;100.00
4598;BME280;62772;48.646;8.906;2023-04-02T03:42:48;95615.25;;;5.68;100.00
4598;BME280;62772;48.646;8.906;2023-04-02T03:47:55;95619.25;;;5.66;100.00
4598;BME280;62772;48.646;8.906;2023-04-02T03:52:59;95626.13;;;5.67;100.00
4598;BME280;62772;48.646;8.906;2023-04-02T04:03:38;95631.03;;;5.73;100.00
4598;BME280;62772;48.646;8.906;2023-04-02T04:08:45;95636.34;;;5.73;100.00
4598;BME280;62772;48.646;8.906;2023-04-02T04:14:09;95644.69;;;5.67;100.00
4598;BME280;62772;48.646;8.906;2023-04-02T04:19:24;95644.59;;;5.86;100.00
4598;BME280;62772;48.646;8.906;2023-04-02T04:24:29;95653.72;;;5.93;100.00
4598;BME280;62772;48.646;8.906;2023-04-02T04:29:47;95660.38;;;5.77;100.00
4598;BME280;62772;48.646;8.906;2023-04-02T04:34:50;95664.34;;;5.33;100.00
4598;BME280;62772;48.646;8.906;2023-04-02T04:40:02;95670.50;;;5.75;100.00
4598;BME280;62772;48.646;8.906;2023-04-02T04:50:33;95685.31;;;5.76;100.00
4598;BME280;62772;48.646;8.906;2023-04-02T04:55:42;95686.47;;;5.84;100.00
4598;BME280;62772;48.646;8.906;2023-04-02T05:11:31;95700.41;;;5.75;100.00
4598;BME280;62772;48.646;8.906;2023-04-02T05:16:44;95710.31;;;5.56;100.00
4598;BME280;62772;48.646;8.906;2023-04-02T05:21:59;95703.66;;;5.58;100.00
4598;BME280;62772;48.646;8.906;2023-04-02T05:27:11;95706.22;;;4.98;100.00
4598;BME280;62772;48.646;8.906;2023-04-02T05:32:23;95708.94;;;4.93;100.00
4598;BME280;62772;48.646;8.906;2023-04-02T05:37:27;95720.56;;;5.11;100.00
4598;BME280;62772;48.646;8.906;2023-04-02T05:42:34;95732.50;;;5.27;100.00
4598;BME280;62772;48.646;8.906;2023-04-02T05:47:42;95736.88;;;5.18;100.00
4598;BME280;62772;48.646;8.906;2023-04-02T06:03:50;95742.09;;;5.23;100.00
4598;BME280;62772;48.646;8.906;2023-04-02T06:09:01;95757.84;;;5.47;100.00
4598;BME280;62772;48.646;8.906;2023-04-02T06:14:05;95766.03;;;5.64;100.00
4598;BME280;62772;48.646;8.906;2023-04-02T06:19:14;95768.09;;;5.54;100.00
4598;BME280;62772;48.646;8.906;2023-04-02T06:24:19;95780.03;;;5.51;100.00
4598;BME280;62772;48.646;8.906;2023-04-02T06:29:41;95775.13;;;5.44;100.00
4598;BME280;62772;48.646;8.906;2023-04-02T06:34:48;95790.69;;;5.65;100.00
4598;BME280;62772;48.646;8.906;2023-04-02T06:39:50;95788.88;;;5.93;100.00
4598;BME280;62772;48.646;8.906;2023-04-02T06:44:53;95784.59;;;6.11;100.00
4598;BME280;62772;48.646;8.906;2023-04-02T06:50:43;95796.69;;;6.17;100.00
4598;BME280;62772;48.646;8.906;2023-04-02T06:55:57;95809.38;;;6.21;100.00
4598;BME280;62772;48.646;8.906;2023-04-02T07:01:03;95824.59;;;6.29;100.00
4598;BME280;62772;48.646;8.906;2023-04-02T07:06:17;95828.00;;;6.15;100.00
4598;BME280;62772;48.646;8.906;2023-04-02T07:11:21;95838.63;;;6.43;100.00
4598;BME280;62772;48.646;8.906;2023-04-02T07:16:25;95836.88;;;6.39;100.00
4598;BME280;62772;48.646;8.906;2023-04-02T07:21:31;95844.44;;;6.45;100.00
4598;BME280;62772;48.646;8.906;2023-04-02T07:26:31;95858.47;;;6.32;100.00
4598;BME280;62772;48.646;8.906;2023-04-02T07:31:32;95853.28;;;6.54;100.00
4598;BME280;62772;48.646;8.906;2023-04-02T07:36:32;95867.84;;;6.57;100.00
4598;BME280;62772;48.646;8.906;2023-04-02T07:41:33;95875.88;;;6.52;100.00
4598;BME280;62772;48.646;8.906;2023-04-02T07:46:33;95867.63;;;6.67;100.00
4598;BME280;62772;48.646;8.906;2023-04-02T07:51:33;95882.97;;;6.70;100.00
4598;BME280;62772;48.646;8.906;2023-04-02T07:56:35;95887.69;;;6.87;100.00
4598;BME280;62772;48.646;8.906;2023-04-02T08:01:35;95904.09;;;6.89;100.00
4598;BME280;62772;48.646;8.906;2023-04-02T08:06:36;95906.03;;;6.84;100.00
4598;BME280;62772;48.646;8.906;2023-04-02T08:11:36;95911.94;;;6.81;100.00
4598;BME280;62772;48.646;8.906;2023-04-02T08:16:44;95919.44;;;6.93;100.00
4598;BME280;62772;48.646;8.906;2023-04-02T08:21:45;95924.34;;;6.99;100.00
4598;BME280;62772;48.646;8.906;2023-04-02T08:26:48;95931.81;;;7.11;100.00
4598;BME280;62772;48.646;8.906;2023-04-02T08:31:49;95941.22;;;7.31;100.00
4598;BME280;62772;48.646;8.906;2023-04-02T08:36:49;95946.53;;;7.31;100.00
4598;BME280;62772;48.646;8.906;2023-04-02T08:42:02;95956.50;;;6.98;100.00
4598;BME280;62772;48.646;8.906;2023-04-02T08:47:05;95962.78;;;7.30;100.00
4598;BME280;62772;48.646;8.906;2023-04-02T08:52:19;95962.94;;;7.47;100.00
4598;BME280;62772;48.646;8.906;2023-04-02T08:57:41;95967.50;;;7.33;100.00
4598;BME280;62772;48.646;8.906;2023-04-02T09:02:59;95973.84;;;7.59;100.00
4598;BME280;62772;48.646;8.906;2023-04-02T09:08:03;95982.69;;;7.69;100.00
4598;BME280;62772;48.646;8.906;2023-04-02T09:13:25;95989.69;;;7.51;100.00
4598;BME280;62772;48.646;8.906;2023-04-02T09:18:29;95995.34;;;7.35;100.00
4598;BME280;62772;48.646;8.906;2023-04-02T09:23:31;95997.88;;;7.54;100.00
4598;BME280;62772;48.646;8.906;2023-04-02T09:28:31;96008.38;;;7.73;100.00
4598;BME280;62772;48.646;8.906;2023-04-02T09:38:55;96019.06;;;7.96;100.00
4598;BME280;62772;48.646;8.906;2023-04-02T09:44:24;96021.63;;;8.24;100.00
4598;BME280;62772;48.646;8.906;2023-04-02T09:49:28;96027.69;;;8.38;100.00
4598;BME280;62772;48.646;8.906;2023-04-02T09:54:29;96036.38;;;7.93;100.00
4598;BME280;62772;48.646;8.906;2023-04-02T09:59:29;96040.94;;;7.93;100.00
4598;BME280;62772;48.646;8.906;2023-04-02T10:04:44;96042.50;;;7.94;100.00
4598;BME280;62772;48.646;8.906;2023-04-02T10:09:56;96054.25;;;8.15;100.00
4598;BME280;62772;48.646;8.906;2023-04-02T10:14:58;96055.97;;;8.48;100.00
4598;BME280;62772;48.646;8.906;2023-04-02T10:20:21;96061.19;;;8.39;100.00
4598;BME280;62772;48.646;8.906;2023-04-02T10:25:30;96071.16;;;8.33;100.00
4598;BME280;62772;48.646;8.906;2023-04-02T10:30:57;96068.25;;;8.80;100.00
4598;BME280;62772;48.646;8.906;2023-04-02T10:42:10;96086.75;;;8.85;100.00
4598;BME280;62772;48.646;8.906;2023-04-02T10:47:37;96088.34;;;8.64;100.00
4598;BME280;62772;48.646;8.906;2023-04-02T10:52:45;96093.03;;;8.67;100.00
4598;BME280;62772;48.646;8.906;2023-04-02T10:57:47;96106.91;;;8.78;100.00
4598;BME280;62772;48.646;8.906;2023-04-02T11:03:35;96108.19;;;8.58;100.00
4598;BME280;62772;48.646;8.906;2023-04-02T11:08:45;96116.38;;;8.47;100.00
4598;BME280;62772;48.646;8.906;2023-04-02T11:13:56;96117.66;;;8.50;100.00
4598;BME280;62772;48.646;8.906;2023-04-02T11:29:34;96134.16;;;8.24;100.00
4598;BME280;62772;48.646;8.906;2023-04-02T11:39:52;96146.28;;;8.30;100.00
4598;BME280;62772;48.646;8.906;2023-04-02T11:44:55;96145.78;;;8.28;100.00
4598;BME280;62772;48.646;8.906;2023-04-02T11:49:59;96152.69;;;8.15;100.00
4598;BME280;62772;48.646;8.906;2023-04-02T12:05:39;96163.50;;;8.33;100.00
4598;BME280;62772;48.646;8.906;2023-04-02T12:10:57;96170.44;;;7.78;100.00
4598;BME280;62772;48.646;8.906;2023-04-02T12:15:58;96168.28;;;8.08;100.00
4598;BME280;62772;48.646;8.906;2023-04-02T12:20:59;96173.19;;;8.15;100.00
4598;BME280;62772;48.646;8.906;2023-04-02T12:26:06;96177.50;;;8.39;100.00
4598;BME280;62772;48.646;8.906;2023-04-02T12:41:24;96187.97;;;8.71;100.00
4598;BME280;62772;48.646;8.906;2023-04-02T12:46:27;96188.66;;;8.77;100.00
4598;BME280;62772;48.646;8.906;2023-04-02T12:51:28;96194.13;;;8.72;100.00
4598;BME280;62772;48.646;8.906;2023-04-02T12:56:29;96199.59;;;8.89;100.00
4598;BME280;62772;48.646;8.906;2023-04-02T13:01:30;96208.72;;;8.97;100.00
4598;BME280;62772;48.646;8.906;2023-04-02T13:06:31;96208.31;;;9.04;100.00
4598;BME280;62772;48.646;8.906;2023-04-02T13:11:37;96207.28;;;8.91;100.00
4598;BME280;62772;48.646;8.906;2023-04-02T13:16:38;96207.63;;;9.21;100.00
4598;BME280;62772;48.646;8.906;2023-04-02T13:21:39;96210.06;;;9.31;100.00
4598;BME280;62772;48.646;8.906;2023-04-02T13:26:40;96204.13;;;9.34;100.00
4598;BME280;62772;48.646;8.906;2023-04-02T13:31:41;96210.50;;;9.56;100.00
4598;BME280;62772;48.646;8.906;2023-04-02T13:36:42;96217.28;;;9.62;100.00
4598;BME280;62772;48.646;8.906;2023-04-02T13:41:44;96214.16;;;9.60;100.00
4598;BME280;62772;48.646;8.906;2023-04-02T13:46:45;96213.50;;;9.32;100.00
4598;BME280;62772;48.646;8.906;2023-04-02T13:51:48;96228.16;;;9.20;100.00
4598;BME280;62772;48.646;8.906;2023-04-02T13:56:50;96232.03;;;9.14;100.00
4598;BME280;62772;48.646;8.906;2023-04-02T14:01:53;96237.13;;;9.24;100.00
4598;BME280;62772;48.646;8.906;2023-04-02T14:07:29;96241.50;;;9.20;100.00
4598;BME280;62772;48.646;8.906;2023-04-02T14:23:17;96251.06;;;8.99;100.00
4598;BME280;62772;48.646;8.906;2023-04-02T14:28:48;96264.09;;;8.86;100.00
4598;BME280;62772;48.646;8.906;2023-04-02T14:39:15;96281.34;;;8.06;100.00
4598;BME280;62772;48.646;8.906;2023-04-02T14:44:22;96279.53;;;7.87;100.00
4598;BME280;62772;48.646;8.906;2023-04-02T14:49:29;96286.53;;;7.50;100.00
4598;BME280;62772;48.646;8.906;2023-04-02T14:54:49;96287.84;;;7.53;100.00
4598;BME280;62772;48.646;8.906;2023-04-02T15:05:41;96307.13;;;7.25;100.00
4598;BME280;62772;48.646;8.906;2023-04-02T15:11:00;96305.09;;;6.98;100.00
4598;BME280;62772;48.646;8.906;2023-04-02T15:16:19;96308.66;;;6.88;100.00
4598;BME280;62772;48.646;8.906;2023-04-02T15:21:28;96313.78;;;7.04;100.00
4598;BME280;62772;48.646;8.906;2023-04-02T15:26:41;96322.47;;;6.90;100.00
4598;BME280;62772;48.646;8.906;2023-04-02T15:31:45;96329.72;;;7.04;100.00
4598;BME280;62772;48.646;8.906;2023-04-02T15:36:51;96332.84;;;6.87;100.00
4598;BME280;62772;48.646;8.906;2023-04-02T15:42:23;96336.53;;;6.91;100.00
4598;BME280;62772;48.646;8.906;2023-04-02T15:52:57;96362.25;;;6.71;100.00
4598;BME280;62772;48.646;8.906;2023-04-02T15:58:23;96361.84;;;6.83;100.00
4598;BME280;62772;48.646;8.906;2023-04-02T16:08:57;96372.63;;;6.68;100.00
4598;BME280;62772;48.646;8.906;2023-04-02T16:14:30;96382.88;;;6.56;100.00
4598;BME280;62772;48.646;8.906;2023-04-02T16:19:34;96386.09;;;6.47;100.00
4598;BME280;62772;48.646;8.906;2023-04-02T16:24:37;96399.44;;;6.66;100.00
4598;BME280;62772;48.646;8.906;2023-04-02T16:34:59;96414.91;;;6.35;100.00
4598;BME280;62772;48.646;8.906;2023-04-02T16:40:15;96417.56;;;6.30;100.00
4598;BME280;62772;48.646;8.906;2023-04-02T16:45:29;96435.63;;;5.93;100.00
4598;BME280;62772;48.646;8.906;2023-04-02T16:51:00;96438.31;;;5.88;100.00
4598;BME280;62772;48.646;8.906;2023-04-02T17:01:58;96459.06;;;5.76;100.00
4598;BME280;62772;48.646;8.906;2023-04-02T17:07:13;96457.72;;;5.78;100.00
4598;BME280;62772;48.646;8.906;2023-04-02T17:12:25;96470.66;;;5.40;100.00
4598;BME280;62772;48.646;8.906;2023-04-02T17:17:29;96471.03;;;5.68;100.00
4598;BME280;62772;48.646;8.906;2023-04-02T17:22:30;96486.19;;;5.57;100.00
4598;BME280;62772;48.646;8.906;2023-04-02T17:27:40;96492.28;;;5.58;100.00
4598;BME280;62772;48.646;8.906;2023-04-02T17:32:42;96501.31;;;5.52;100.00
4598;BME280;62772;48.646;8.906;2023-04-02T17:37:50;96514.84;;;5.45;100.00
4598;BME280;62772;48.646;8.906;2023-04-02T17:43:05;96525.78;;;5.23;100.00
4598;BME280;62772;48.646;8.906;2023-04-02T17:53:20;96536.97;;;5.09;100.00
4598;BME280;62772;48.646;8.906;2023-04-02T17:58:47;96548.06;;;5.22;100.00
4598;BME280;62772;48.646;8.906;2023-04-02T18:04:07;96561.56;;;5.20;100.00
4598;BME280;62772;48.646;8.906;2023-04-02T18:19:50;96589.63;;;5.26;100.00
4598;BME280;62772;48.646;8.906;2023-04-02T18:30:42;96613.22;;;4.71;100.00
4598;BME280;62772;48.646;8.906;2023-04-02T18:36:04;96624.84;;;4.70;100.00
4598;BME280;62772;48.646;8.906;2023-04-02T18:41:20;96638.63;;;4.78;100.00
4598;BME280;62772;48.646;8.906;2023-04-02T18:46:36;96650.25;;;4.51;100.00
4598;BME280;62772;48.646;8.906;2023-04-02T18:51:39;96660.81;;;4.56;100.00
4598;BME280;62772;48.646;8.906;2023-04-02T18:56:40;96666.09;;;4.41;100.00
4598;BME280;62772;48.646;8.906;2023-04-02T19:01:43;96681.41;;;4.44;100.00
4598;BME280;62772;48.646;8.906;2023-04-02T19:06:50;96696.75;;;4.42;100.00
4598;BME280;62772;48.646;8.906;2023-04-02T19:11:53;96701.47;;;4.29;100.00
4598;BME280;62772;48.646;8.906;2023-04-02T19:17:15;96711.47;;;4.12;100.00
4598;BME280;62772;48.646;8.906;2023-04-02T19:37:43;96741.91;;;3.72;100.00
4598;BME280;62772;48.646;8.906;2023-04-02T19:42:53;96753.88;;;3.85;100.00
4598;BME280;62772;48.646;8.906;2023-04-02T19:47:55;96761.50;;;3.76;100.00
4598;BME280;62772;48.646;8.906;2023-04-02T19:52:57;96773.72;;;3.50;100.00
4598;BME280;62772;48.646;8.906;2023-04-02T19:57:58;96778.72;;;3.14;100.00
4598;BME280;62772;48.646;8.906;2023-04-02T20:02:59;96780.75;;;3.06;100.00
4598;BME280;62772;48.646;8.906;2023-04-02T20:07:59;96799.50;;;3.10;100.00
4598;BME280;62772;48.646;8.906;2023-04-02T20:13:00;96806.97;;;2.91;100.00
4598;BME280;62772;48.646;8.906;2023-04-02T20:18:00;96812.69;;;2.83;100.00
4598;BME280;62772;48.646;8.906;2023-04-02T20:23:01;96818.13;;;2.98;100.00
4598;BME280;62772;48.646;8.906;2023-04-02T20:28:02;96823.75;;;2.80;100.00
4598;BME280;62772;48.646;8.906;2023-04-02T20:33:03;96834.13;;;2.64;100.00
4598;BME280;62772;48.646;8.906;2023-04-02T20:38:04;96840.97;;;2.65;100.00
4598;BME280;62772;48.646;8.906;2023-04-02T20:43:07;96844.09;;;2.62;100.00
4598;BME280;62772;48.646;8.906;2023-04-02T20:48:08;96854.34;;;2.59;100.00
4598;BME280;62772;48.646;8.906;2023-04-02T20:53:08;96860.50;;;2.42;100.00
4598;BME280;62772;48.646;8.906;2023-04-02T20:58:08;96859.41;;;2.21;100.00
4598;BME280;62772;48.646;8.906;2023-04-02T21:03:10;96857.41;;;2.11;100.00
4598;BME280;62772;48.646;8.906;2023-04-02T21:08:11;96870.84;;;2.10;100.00
4598;BME280;62772;48.646;8.906;2023-04-02T21:13:12;96880.31;;;2.28;100.00
4598;BME280;62772;48.646;8.906;2023-04-02T21:18:13;96892.56;;;1.83;100.00
4598;BME280;62772;48.646;8.906;2023-04-02T21:23:13;96880.19;;;2.01;100.00
4598;BME280;62772;48.646;8.906;2023-04-02T21:28:14;96881.47;;;1.98;100.00
4598;BME280;62772;48.646;8.906;2023-04-02T21:33:14;96888.78;;;2.13;100.00
4598;BME280;62772;48.646;8.906;2023-04-02T21:38:15;96900.63;;;2.10;100.00
4598;BME280;62772;48.646;8.906;2023-04-02T21:43:15;96911.47;;;1.97;100.00
4598;BME280;62772;48.646;8.906;2023-04-02T21:48:16;96910.44;;;1.98;100.00
4598;BME280;62772;48.646;8.906;2023-04-02T21:53:17;96906.69;;;1.94;100.00
4598;BME280;62772;48.646;8.906;2023-04-02T21:58:17;96912.44;;;2.08;100.00
4598;BME280;62772;48.646;8.906;2023-04-02T22:03:19;96913.31;;;1.96;100.00
4598;BME280;62772;48.646;8.906;2023-04-02T22:08:19;96918.44;;;1.86;100.00
4598;BME280;62772;48.646;8.906;2023-04-02T22:13:20;96923.72;;;1.86;100.00
4598;BME280;62772;48.646;8.906;2023-04-02T22:18:21;96924.56;;;1.92;100.00
4598;BME280;62772;48.646;8.906;2023-04-02T22:23:22;96923.31;;;1.94;100.00
4598;BME280;62772;48.646;8.906;2023-04-02T22:28:25;96931.84;;;1.85;100.00
4598;BME280;62772;48.646;8.906;2023-04-02T22:33:26;96928.16;;;1.69;100.00
4598;BME280;62772;48.646;8.906;2023-04-02T22:38:27;96933.75;;;1.72;100.00
4598;BME280;62772;48.646;8.906;2023-04-02T22:43:27;96932.56;;;1.80;100.00
4598;BME280;62772;48.646;8.906;2023-04-02T22:48:28;96927.19;;;1.75;100.00
4598;BME280;62772;48.646;8.906;2023-04-02T22:53:28;96918.72;;;1.73;100.00
4598;BME280;62772;48.646;8.906;2023-04-02T22:58:29;96923.22;;;1.72;100.00
4598;BME280;62772;48.646;8.906;2023-04-02T23:03:29;96933.28;;;1.75;100.00
4598;BME280;62772;48.646;8.906;2023-04-02T23:08:30;96938.34;;;1.65;100.00
4598;BME280;62772;48.646;8.906;2023-04-02T23:13:31;96928.72;;;1.71;100.00
4598;BME280;62772;48.646;8.906;2023-04-02T23:18:36;96937.16;;;1.73;100.00
4598;BME280;62772;48.646;8.906;2023-04-02T23:23:37;96935.56;;;1.72;100.00
4598;BME280;62772;48.646;8.906;2023-04-02T23:28:38;96928.72;;;1.71;100.00
4598;BME280;62772;48.646;8.906;2023-04-02T23:33:39;96930.38;;;1.60;100.00
4598;BME280;62772;48.646;8.906;2023-04-02T23:38:40;96931.31;;;1.54;100.00
4598;BME280;62772;48.646;8.906;2023-04-02T23:43:40;96940.72;;;1.50;100.00
4598;BME280;62772;48.646;8.906;2023-04-02T23:48:41;96942.22;;;1.45;100.00
4598;BME280;62772;48.646;8.906;2023-04-02T23:53:43;96941.38;;;1.57;100.00
4598;BME280;62772;48.646;8.906;2023-04-02T23:58:44;96935.59;;;1.43;100.00
